Time;durP1;ratioP1;P1;durP2;ratioP2;P2;SDS_P1;SDS_P2;PMS_P1;PMS_P2;Temp;Humidity;BMP_temperature;BMP_pressure;BME280_temperature;BME280_humidity;BME280_pressure;Samples;Min_cycle;Max_cycle;Signal;HPM_P1;HPM_P2
2021/04/15 00:01:30;;;;;;;;;;;20.10;70.50;;;;;;5097128;28;19924;-80
2021/04/15 00:03:57;;;;;;;;;;;20.20;70.80;;;;;;5079641;28;20003;-80
2021/04/15 00:06:25;;;;;;;;;;;20.30;69.60;;;;;;5087168;28;19923;-82
2021/04/15 00:08:52;;;;;;;;;;;20.20;69.00;;;;;;5074906;28;20432;-83
2021/04/15 00:11:20;;;;;;;;;;;20.30;70.90;;;;;;5074670;28;19962;-86
2021/04/15 00:13:49;;;;;;;;;;;20.30;68.90;;;;;;5088245;28;19912;-85
2021/04/15 00:16:16;;;;;;;;;;;20.40;68.80;;;;;;5084451;28;19913;-83
2021/04/15 00:18:42;;;;;;;;;;;20.50;69.60;;;;;;5086840;28;19912;-85
2021/04/15 00:21:10;;;;;;;;;;;20.50;70.00;;;;;;5082910;28;19920;-83
2021/04/15 00:23:37;;;;;;;;;;;20.50;68.90;;;;;;5088581;28;19920;-84
2021/04/15 00:26:05;;;;;;;;;;;20.60;69.40;;;;;;5083993;28;19916;-83
2021/04/15 00:28:32;;;;;;;;;;;20.60;69.40;;;;;;5092027;28;20478;-83
2021/04/15 00:30:58;;;;;;;;;;;20.60;68.90;;;;;;5092409;28;20031;-84
2021/04/15 00:33:25;;;;;;;;;;;20.70;68.20;;;;;;5106717;28;19962;-82
2021/04/15 00:35:52;;;;;;;;;;;20.80;69.30;;;;;;5111980;28;19908;-82
2021/04/15 00:38:20;;;;;;;;;;;20.90;67.50;;;;;;5112710;28;19908;-83
2021/04/15 00:40:47;;;;;;;;;;;21.00;68.70;;;;;;5096494;28;19927;-81
2021/04/15 00:43:15;;;;;;;;;;;21.10;66.80;;;;;;5058069;28;19918;-81
2021/04/15 00:45:45;;;;;;;;;;;21.10;66.30;;;;;;4999170;28;19914;-81
2021/04/15 00:48:33;;;;;;;;;;;21.20;66.20;;;;;;4988777;28;19922;-80
2021/04/15 00:51:20;;;;;;;;;;;21.30;66.20;;;;;;4992459;28;19910;-82
2021/04/15 00:53:54;;;;;;;;;;;21.30;66.30;;;;;;5035610;28;19921;-82
2021/04/15 00:56:21;;;;;;;;;;;21.50;65.40;;;;;;5009420;28;19935;-81
2021/04/15 00:58:48;;;;;;;;;;;21.50;66.40;;;;;;5060389;28;19914;-83
2021/04/15 01:01:15;;;;;;;;;;;21.40;66.30;;;;;;4992856;28;19971;-81
2021/04/15 01:03:42;;;;;;;;;;;21.50;67.20;;;;;;5052557;28;19964;-81
2021/04/15 01:06:09;;;;;;;;;;;21.50;66.80;;;;;;5061957;28;20322;-81
2021/04/15 01:08:35;;;;;;;;;;;21.50;65.40;;;;;;4989527;28;19963;-81
2021/04/15 01:11:31;;;;;;;;;;;21.50;65.40;;;;;;4973211;28;19910;-81
2021/04/15 01:14:06;;;;;;;;;;;21.70;67.60;;;;;;4983356;28;20009;-81
2021/04/15 01:16:51;;;;;;;;;;;22.20;66.70;;;;;;4989745;28;19923;-83
2021/04/15 01:19:26;;;;;;;;;;;22.40;66.60;;;;;;4989541;28;19914;-82
2021/04/15 01:22:00;;;;;;;;;;;23.00;62.90;;;;;;4990213;28;19926;-79
2021/04/15 01:24:27;;;;;;;;;;;23.10;62.90;;;;;;4990540;28;19918;-79
2021/04/15 01:27:12;;;;;;;;;;;23.10;62.60;;;;;;4973315;28;20373;-82
2021/04/15 01:29:38;;;;;;;;;;;23.00;62.40;;;;;;4981452;28;19953;-81
2021/04/15 01:32:18;;;;;;;;;;;23.00;65.00;;;;;;4988193;28;19915;-81
2021/04/15 01:34:47;;;;;;;;;;;23.00;62.90;;;;;;4988385;28;19917;-80
2021/04/15 01:37:32;;;;;;;;;;;22.60;62.60;;;;;;4992645;28;19971;-81
2021/04/15 01:40:08;;;;;;;;;;;22.30;63.30;;;;;;5020081;28;19916;-78
2021/04/15 01:42:42;;;;;;;;;;;22.20;63.40;;;;;;5114544;28;20230;-81
2021/04/15 01:45:10;;;;;;;;;;;22.20;66.00;;;;;;5107413;28;19914;-83
2021/04/15 01:47:52;;;;;;;;;;;22.40;64.30;;;;;;5075746;28;19917;-81
2021/04/15 01:50:21;;;;;;;;;;;22.60;64.00;;;;;;5082095;28;19964;-84
2021/04/15 01:52:53;;;;;;;;;;;22.70;63.50;;;;;;5091763;28;19919;-79
2021/04/15 01:55:30;;;;;;;;;;;22.50;64.40;;;;;;5092920;28;19912;-78
2021/04/15 01:58:02;;;;;;;;;;;22.40;64.30;;;;;;5094609;28;19920;-84
2021/04/15 02:00:31;;;;;;;;;;;22.60;64.40;;;;;;5088803;28;19988;-83
2021/04/15 02:02:59;;;;;;;;;;;22.60;65.20;;;;;;5090744;28;19912;-83
2021/04/15 02:05:27;;;;;;;;;;;22.50;61.90;;;;;;5092176;28;19973;-83
2021/04/15 02:08:00;;;;;;;;;;;22.30;63.20;;;;;;5092076;28;19912;-84
2021/04/15 02:10:28;;;;;;;;;;;22.30;64.90;;;;;;5090936;28;19916;-79
2021/04/15 02:12:57;;;;;;;;;;;22.20;64.90;;;;;;5077237;28;19913;-82
2021/04/15 02:15:26;;;;;;;;;;;22.30;63.40;;;;;;5102525;28;20016;-79
2021/04/15 02:17:53;;;;;;;;;;;22.40;63.60;;;;;;5097336;28;19912;-82
2021/04/15 02:20:22;;;;;;;;;;;22.40;62.80;;;;;;5106329;28;19991;-83
2021/04/15 02:23:11;;;;;;;;;;;22.40;61.40;;;;;;5095587;28;19920;-81
2021/04/15 02:25:42;;;;;;;;;;;22.50;60.10;;;;;;5081181;28;19913;-81
2021/04/15 02:28:11;;;;;;;;;;;22.40;59.00;;;;;;5085851;28;20007;-83
2021/04/15 02:30:40;;;;;;;;;;;22.40;60.40;;;;;;5095877;28;19987;-84
2021/04/15 02:33:11;;;;;;;;;;;22.30;62.40;;;;;;5096176;28;19912;-80
2021/04/15 02:35:45;;;;;;;;;;;22.30;62.10;;;;;;5080180;28;19931;-82
2021/04/15 02:38:13;;;;;;;;;;;22.40;60.90;;;;;;5092996;28;20015;-83
2021/04/15 02:40:42;;;;;;;;;;;22.40;62.20;;;;;;5092611;28;19931;-81
2021/04/15 02:43:11;;;;;;;;;;;22.70;60.20;;;;;;5083747;28;20351;-85
2021/04/15 02:45:43;;;;;;;;;;;22.70;60.40;;;;;;5073655;28;19927;-81
2021/04/15 02:48:13;;;;;;;;;;;22.80;61.80;;;;;;5081352;28;19921;-81
2021/04/15 02:50:41;;;;;;;;;;;22.70;62.10;;;;;;5090419;28;20316;-79
2021/04/15 02:53:16;;;;;;;;;;;22.50;62.70;;;;;;5055416;28;19965;-82
2021/04/15 02:56:08;;;;;;;;;;;22.30;63.40;;;;;;5063214;28;19922;-81
2021/04/15 02:59:01;;;;;;;;;;;22.40;62.80;;;;;;5078978;28;20007;-81
2021/04/15 03:01:31;;;;;;;;;;;22.50;62.40;;;;;;5077596;28;19926;-85
2021/04/15 03:03:58;;;;;;;;;;;22.50;62.20;;;;;;5092575;28;19966;-85
2021/04/15 03:06:27;;;;;;;;;;;22.50;60.10;;;;;;5093395;28;19908;-84
2021/04/15 03:08:57;;;;;;;;;;;22.60;59.10;;;;;;5080263;28;19916;-79
2021/04/15 03:11:27;;;;;;;;;;;22.70;58.50;;;;;;5090691;28;19916;-79
2021/04/15 03:13:55;;;;;;;;;;;22.70;59.10;;;;;;5093297;28;19995;-77
2021/04/15 03:16:26;;;;;;;;;;;22.80;59.20;;;;;;5093346;28;19908;-81
2021/04/15 03:18:55;;;;;;;;;;;22.80;59.30;;;;;;5093921;28;19919;-82
2021/04/15 03:21:24;;;;;;;;;;;22.80;60.10;;;;;;5093334;28;19912;-78
2021/04/15 03:23:56;;;;;;;;;;;22.80;60.20;;;;;;5093557;28;20001;-83
2021/04/15 03:26:33;;;;;;;;;;;22.70;60.00;;;;;;5091858;28;19931;-84
2021/04/15 03:29:23;;;;;;;;;;;22.70;59.60;;;;;;5072339;28;19912;-77
2021/04/15 03:32:01;;;;;;;;;;;22.70;60.10;;;;;;5069456;28;19920;-78
2021/04/15 03:34:31;;;;;;;;;;;22.70;59.90;;;;;;5059035;28;19917;-78
2021/04/15 03:36:58;;;;;;;;;;;22.80;59.80;;;;;;5078322;28;19919;-79
2021/04/15 03:39:32;;;;;;;;;;;22.80;60.90;;;;;;5080759;28;19912;-79
2021/04/15 03:42:03;;;;;;;;;;;22.80;61.00;;;;;;5083066;28;20294;-80
2021/04/15 03:44:33;;;;;;;;;;;22.80;61.40;;;;;;5087029;28;19923;-80
2021/04/15 03:47:05;;;;;;;;;;;22.80;61.40;;;;;;5075550;28;19991;-77
2021/04/15 03:49:38;;;;;;;;;;;22.80;60.80;;;;;;5081106;28;19997;-79
2021/04/15 03:52:11;;;;;;;;;;;22.90;60.30;;;;;;5091733;28;19912;-79
2021/04/15 03:54:43;;;;;;;;;;;22.70;60.70;;;;;;5073799;28;19999;-80
2021/04/15 03:57:12;;;;;;;;;;;22.70;61.60;;;;;;5070941;28;19936;-79
2021/04/15 03:59:48;;;;;;;;;;;22.80;60.60;;;;;;5078336;28;19952;-83
2021/04/15 04:02:16;;;;;;;;;;;23.00;61.10;;;;;;5072156;28;19924;-83
2021/04/15 04:04:48;;;;;;;;;;;23.00;61.10;;;;;;5071951;28;19943;-83
2021/04/15 04:07:27;;;;;;;;;;;23.30;60.30;;;;;;5090170;28;19919;-83
2021/04/15 04:10:00;;;;;;;;;;;23.50;58.70;;;;;;5079347;28;20536;-78
2021/04/15 04:12:38;;;;;;;;;;;23.30;60.10;;;;;;5080564;28;19916;-79
2021/04/15 04:15:07;;;;;;;;;;;23.30;60.00;;;;;;5064338;28;19983;-85
2021/04/15 04:17:40;;;;;;;;;;;23.30;59.90;;;;;;5074492;28;20384;-81
2021/04/15 04:20:07;;;;;;;;;;;23.20;60.80;;;;;;5094788;28;19927;-79
2021/04/15 04:22:45;;;;;;;;;;;23.20;60.10;;;;;;5090245;28;20271;-79
2021/04/15 04:25:18;;;;;;;;;;;23.20;61.80;;;;;;5066821;28;19919;-83
2021/04/15 04:27:47;;;;;;;;;;;23.10;61.40;;;;;;5085782;28;19920;-79
2021/04/15 04:30:17;;;;;;;;;;;23.10;60.60;;;;;;5083162;28;19959;-82
2021/04/15 04:32:47;;;;;;;;;;;23.10;60.30;;;;;;5089686;28;20397;-82
2021/04/15 04:35:22;;;;;;;;;;;23.10;59.90;;;;;;5085248;28;20382;-78
2021/04/15 04:37:51;;;;;;;;;;;22.90;59.60;;;;;;5070905;28;19912;-78
2021/04/15 04:40:36;;;;;;;;;;;23.00;59.80;;;;;;5083817;28;19928;-77
2021/04/15 04:43:14;;;;;;;;;;;23.10;60.10;;;;;;5074018;28;19924;-76
2021/04/15 04:45:41;;;;;;;;;;;23.10;61.40;;;;;;5085420;28;19938;-77
2021/04/15 04:48:12;;;;;;;;;;;23.20;60.30;;;;;;5086074;28;20379;-80
2021/04/15 04:50:45;;;;;;;;;;;23.30;60.20;;;;;;5077967;28;19917;-79
2021/04/15 04:53:22;;;;;;;;;;;23.10;60.10;;;;;;5075049;28;19916;-78
2021/04/15 04:56:09;;;;;;;;;;;23.00;60.50;;;;;;5086088;28;19913;-78
2021/04/15 04:58:36;;;;;;;;;;;23.00;62.20;;;;;;5073896;28;20286;-80
2021/04/15 05:01:09;;;;;;;;;;;23.20;60.70;;;;;;5070086;28;19969;-78
2021/04/15 05:03:42;;;;;;;;;;;23.40;61.40;;;;;;5075607;28;20006;-79
2021/04/15 05:06:20;;;;;;;;;;;23.30;60.50;;;;;;5095466;28;19948;-78
2021/04/15 05:09:01;;;;;;;;;;;23.30;61.10;;;;;;5069058;28;19910;-81
2021/04/15 05:11:57;;;;;;;;;;;23.30;60.80;;;;;;5083837;28;20366;-81
2021/04/15 05:14:53;;;;;;;;;;;23.30;60.30;;;;;;5061042;28;19938;-81
2021/04/15 05:17:24;;;;;;;;;;;23.20;60.80;;;;;;5059623;28;19912;-78
2021/04/15 05:26:13;;;;;;;;;;;23.40;59.90;;;;;;4986739;28;20382;-88
2021/04/15 05:28:52;;;;;;;;;;;23.30;59.90;;;;;;4995297;28;20291;-87
2021/04/15 05:31:28;;;;;;;;;;;23.20;60.10;;;;;;5002954;28;20363;-88
2021/04/15 05:34:34;;;;;;;;;;;23.30;60.20;;;;;;4995597;28;19964;-86
2021/04/15 05:37:20;;;;;;;;;;;23.10;60.40;;;;;;4978824;28;20279;-87
2021/04/15 05:39:55;;;;;;;;;;;23.20;61.30;;;;;;5016167;28;19956;-87
2021/04/15 05:42:41;;;;;;;;;;;23.10;61.20;;;;;;4997207;28;19917;-87
2021/04/15 05:45:41;;;;;;;;;;;22.90;61.80;;;;;;5016289;28;19916;-88
2021/04/15 05:48:16;;;;;;;;;;;22.90;62.10;;;;;;5015446;28;20334;-88
2021/04/15 05:50:56;;;;;;;;;;;22.90;62.70;;;;;;5013046;28;19913;-88
2021/04/15 05:53:23;;;;;;;;;;;22.80;73.00;;;;;;4980637;28;19922;-86
2021/04/15 05:55:55;;;;;;;;;;;22.60;76.80;;;;;;4989750;28;19917;-86
2021/04/15 05:58:31;;;;;;;;;;;22.50;78.10;;;;;;4996147;28;19909;-87
2021/04/15 06:01:03;;;;;;;;;;;22.40;78.70;;;;;;4986922;28;19953;-87
2021/04/15 06:03:42;;;;;;;;;;;22.30;79.50;;;;;;4969945;28;19917;-87
2021/04/15 06:06:11;;;;;;;;;;;22.20;80.10;;;;;;4978496;28;19914;-87
2021/04/15 06:08:40;;;;;;;;;;;22.10;80.50;;;;;;4994105;28;19968;-86
2021/04/15 06:11:10;;;;;;;;;;;22.00;80.70;;;;;;4994145;28;19960;-88
2021/04/15 06:13:44;;;;;;;;;;;21.90;81.30;;;;;;4994509;28;19910;-88
2021/04/15 06:16:16;;;;;;;;;;;21.90;81.70;;;;;;4996221;28;19910;-86
2021/04/15 06:18:50;;;;;;;;;;;21.90;82.20;;;;;;4995717;28;19976;-86
2021/04/15 06:21:23;;;;;;;;;;;21.90;82.30;;;;;;4995880;28;19981;-87
2021/04/15 06:23:54;;;;;;;;;;;21.80;83.20;;;;;;4992852;28;19936;-86
2021/04/15 06:29:03;;;;;;;;;;;21.70;82.90;;;;;;5721916;23;19937;-83
2021/04/15 06:31:43;;;;;;;;;;;21.70;83.70;;;;;;5017875;28;20266;-82
2021/04/15 06:34:11;;;;;;;;;;;21.70;83.60;;;;;;5015192;28;19976;-82
2021/04/15 06:36:41;;;;;;;;;;;21.60;83.40;;;;;;5014669;28;20367;-80
2021/04/15 06:39:47;;;;;;;;;;;21.60;83.70;;;;;;4998950;28;19909;-77
2021/04/15 06:42:32;;;;;;;;;;;21.50;84.80;;;;;;4913506;29;19920;-80
2021/04/15 06:45:14;;;;;;;;;;;21.50;85.70;;;;;;4917766;29;19982;-80
2021/04/15 06:47:50;;;;;;;;;;;21.50;85.40;;;;;;4975852;28;19910;-82
2021/04/15 06:50:30;;;;;;;;;;;21.50;85.70;;;;;;4995629;28;19997;-83
2021/04/15 06:53:15;;;;;;;;;;;21.50;86.20;;;;;;4977618;28;19910;-83
2021/04/15 06:55:54;;;;;;;;;;;21.40;86.50;;;;;;4996720;28;19913;-79
2021/04/15 06:58:52;;;;;;;;;;;21.40;86.70;;;;;;5016872;28;19914;-87
2021/04/15 07:01:25;;;;;;;;;;;21.30;86.00;;;;;;5004180;28;19964;-85
2021/04/15 07:04:23;;;;;;;;;;;21.30;86.40;;;;;;5017928;28;19913;-80
2021/04/15 07:06:56;;;;;;;;;;;21.20;85.80;;;;;;4940487;29;19942;-83
2021/04/15 07:09:46;;;;;;;;;;;21.10;86.90;;;;;;4951028;28;19913;-86
2021/04/15 07:12:16;;;;;;;;;;;21.10;86.10;;;;;;5014981;28;19977;-79
2021/04/15 07:14:43;;;;;;;;;;;21.10;86.70;;;;;;4998911;28;19960;-83
2021/04/15 07:17:11;;;;;;;;;;;21.10;87.30;;;;;;5012329;28;19945;-83
2021/04/15 07:19:53;;;;;;;;;;;21.00;87.40;;;;;;4982734;28;19937;-80
2021/04/15 07:22:38;;;;;;;;;;;21.00;89.20;;;;;;4997261;28;19917;-80
2021/04/15 07:25:17;;;;;;;;;;;20.90;88.80;;;;;;4995528;28;20008;-80
2021/04/15 07:27:49;;;;;;;;;;;21.00;88.90;;;;;;4995164;28;20490;-81
2021/04/15 07:30:19;;;;;;;;;;;20.90;89.60;;;;;;4995122;28;20368;-85
2021/04/15 07:32:57;;;;;;;;;;;20.90;89.90;;;;;;4991064;28;20260;-79
2021/04/15 07:35:42;;;;;;;;;;;20.90;90.30;;;;;;5003187;28;19964;-82
2021/04/15 07:38:27;;;;;;;;;;;20.90;90.60;;;;;;5014922;28;19909;-78
2021/04/15 07:41:09;;;;;;;;;;;20.90;90.90;;;;;;5011283;28;19948;-80
2021/04/15 07:43:51;;;;;;;;;;;20.90;91.20;;;;;;5010599;28;19975;-78
2021/04/15 07:46:18;;;;;;;;;;;20.90;91.40;;;;;;5010521;28;20477;-78
2021/04/15 07:49:08;;;;;;;;;;;20.80;91.50;;;;;;5012045;28;19964;-80
2021/04/15 07:51:44;;;;;;;;;;;20.80;91.70;;;;;;5012030;28;19910;-79
2021/04/15 07:54:29;;;;;;;;;;;20.70;92.00;;;;;;5011126;28;20012;-79
2021/04/15 07:57:14;;;;;;;;;;;20.70;92.20;;;;;;5011924;28;19913;-79
2021/04/15 07:59:56;;;;;;;;;;;20.60;92.40;;;;;;5012212;28;19910;-80
2021/04/15 08:02:38;;;;;;;;;;;20.50;92.60;;;;;;5010847;28;19917;-80
2021/04/15 08:05:40;;;;;;;;;;;20.50;92.50;;;;;;5014107;28;20272;-80
2021/04/15 08:08:10;;;;;;;;;;;20.50;92.60;;;;;;4937034;29;19915;-80
2021/04/15 08:10:55;;;;;;;;;;;20.50;92.80;;;;;;5015763;28;19910;-81
2021/04/15 08:13:22;;;;;;;;;;;20.50;92.90;;;;;;5027419;28;19932;-79
2021/04/15 08:15:52;;;;;;;;;;;20.50;92.90;;;;;;5015989;28;19999;-78
2021/04/15 08:18:37;;;;;;;;;;;20.50;93.40;;;;;;4993777;28;20314;-79
2021/04/15 08:21:07;;;;;;;;;;;20.50;93.20;;;;;;5006873;28;20012;-78
2021/04/15 08:23:57;;;;;;;;;;;20.40;93.20;;;;;;4983450;28;19943;-79
2021/04/15 08:26:33;;;;;;;;;;;20.40;93.30;;;;;;4996187;28;20543;-80
2021/04/15 08:29:15;;;;;;;;;;;20.40;93.50;;;;;;4983070;28;19921;-78
2021/04/15 08:31:59;;;;;;;;;;;20.40;93.60;;;;;;5000211;28;20001;-79
2021/04/15 08:34:26;;;;;;;;;;;20.30;93.80;;;;;;4991176;28;20363;-79
2021/04/15 08:36:52;;;;;;;;;;;20.30;93.90;;;;;;5002252;28;19917;-79
2021/04/15 08:39:37;;;;;;;;;;;20.30;94.00;;;;;;4983084;28;19921;-77
2021/04/15 08:42:23;;;;;;;;;;;20.30;94.20;;;;;;4991876;28;19922;-81
2021/04/15 08:45:02;;;;;;;;;;;20.20;94.30;;;;;;4974565;28;19968;-80
2021/04/15 08:47:49;;;;;;;;;;;20.20;94.40;;;;;;4972674;28;19913;-77
2021/04/15 08:50:21;;;;;;;;;;;20.20;94.40;;;;;;4974443;28;19921;-80
2021/04/15 08:53:00;;;;;;;;;;;20.20;94.40;;;;;;4991695;28;19976;-80
2021/04/15 08:55:38;;;;;;;;;;;20.30;94.50;;;;;;4990876;28;19917;-80
2021/04/15 08:58:26;;;;;;;;;;;20.20;94.50;;;;;;4972892;28;20438;-80
2021/04/15 09:01:18;;;;;;;;;;;20.30;94.60;;;;;;4991287;28;19918;-80
2021/04/15 09:03:51;;;;;;;;;;;20.30;94.80;;;;;;4991325;28;19916;-79
2021/04/15 09:06:28;;;;;;;;;;;20.30;94.70;;;;;;4976693;28;19974;-80
2021/04/15 09:08:54;;;;;;;;;;;20.40;94.70;;;;;;4974317;28;19910;-81
2021/04/15 09:11:35;;;;;;;;;;;20.30;94.60;;;;;;4995125;28;19910;-80
2021/04/15 09:14:07;;;;;;;;;;;20.30;94.80;;;;;;4995924;28;19916;-80
2021/04/15 09:16:44;;;;;;;;;;;20.30;94.90;;;;;;5007632;28;19914;-80
2021/04/15 09:19:32;;;;;;;;;;;20.30;95.00;;;;;;4998861;28;19917;-79
2021/04/15 09:22:17;;;;;;;;;;;20.40;95.00;;;;;;5016599;28;19925;-82
2021/04/15 09:24:53;;;;;;;;;;;20.30;95.30;;;;;;5016938;28;19910;-82
2021/04/15 09:27:32;;;;;;;;;;;20.30;95.10;;;;;;4998090;28;19909;-81
2021/04/15 09:30:21;;;;;;;;;;;20.30;95.00;;;;;;5016955;28;19926;-83
2021/04/15 09:33:00;;;;;;;;;;;20.30;95.10;;;;;;5022341;28;20300;-81
2021/04/15 09:35:42;;;;;;;;;;;20.30;95.10;;;;;;5024166;28;19969;-83
2021/04/15 09:38:27;;;;;;;;;;;20.30;95.40;;;;;;5034493;28;19955;-82
2021/04/15 09:41:02;;;;;;;;;;;20.30;95.40;;;;;;5028511;28;19917;-82
2021/04/15 09:43:49;;;;;;;;;;;20.20;95.30;;;;;;5019749;28;20303;-80
2021/04/15 09:46:24;;;;;;;;;;;20.20;95.40;;;;;;5015606;28;19982;-76
2021/04/15 09:49:08;;;;;;;;;;;20.20;95.00;;;;;;5014273;28;20383;-77
2021/04/15 09:51:41;;;;;;;;;;;20.20;93.50;;;;;;5005707;28;19945;-77
2021/04/15 09:54:17;;;;;;;;;;;20.20;92.00;;;;;;5004556;28;20287;-79
2021/04/15 09:56:55;;;;;;;;;;;20.20;90.20;;;;;;5014735;28;20023;-79
2021/04/15 09:59:46;;;;;;;;;;;20.30;90.60;;;;;;4998659;28;19913;-80
2021/04/15 10:02:31;;;;;;;;;;;20.40;85.40;;;;;;5014280;28;19929;-79
2021/04/15 10:05:04;;;;;;;;;;;20.50;83.40;;;;;;4997306;28;19977;-79
2021/04/15 10:07:40;;;;;;;;;;;20.50;81.10;;;;;;5014852;28;19913;-80
2021/04/15 10:10:25;;;;;;;;;;;20.60;80.70;;;;;;5016723;28;19956;-80
2021/04/15 10:13:10;;;;;;;;;;;20.60;80.70;;;;;;5016364;28;20417;-81
2021/04/15 10:15:36;;;;;;;;;;;20.60;79.00;;;;;;5016076;28;20270;-80
2021/04/15 10:18:03;;;;;;;;;;;20.60;79.70;;;;;;5015536;28;20421;-77
2021/04/15 10:20:59;;;;;;;;;;;20.50;80.00;;;;;;5014110;28;19976;-78
2021/04/15 10:23:58;;;;;;;;;;;20.50;78.70;;;;;;5001910;28;20048;-78
2021/04/15 10:26:28;;;;;;;;;;;20.50;78.80;;;;;;4965015;28;19922;-77
2021/04/15 10:28:54;;;;;;;;;;;20.50;78.60;;;;;;5010219;28;19921;-77
2021/04/15 10:31:42;;;;;;;;;;;20.40;78.70;;;;;;4997848;28;20283;-78
2021/04/15 10:34:15;;;;;;;;;;;20.40;80.00;;;;;;5012123;28;19909;-77
2021/04/15 10:36:52;;;;;;;;;;;20.30;82.10;;;;;;4995482;28;19916;-77
2021/04/15 10:39:19;;;;;;;;;;;20.30;81.20;;;;;;4995659;28;19999;-77
2021/04/15 10:42:01;;;;;;;;;;;20.20;80.20;;;;;;4978634;28;19949;-77
2021/04/15 10:44:57;;;;;;;;;;;20.20;78.80;;;;;;5010501;28;19957;-77
2021/04/15 10:47:39;;;;;;;;;;;20.20;78.70;;;;;;4913363;28;20002;-77
2021/04/15 10:50:17;;;;;;;;;;;20.20;77.40;;;;;;5014349;28;20008;-80
2021/04/15 10:52:59;;;;;;;;;;;20.20;77.80;;;;;;5012067;28;19914;-79
2021/04/15 10:55:26;;;;;;;;;;;20.20;78.10;;;;;;4996844;28;20383;-79
2021/04/15 10:57:53;;;;;;;;;;;20.20;77.70;;;;;;5013633;28;19921;-77
2021/04/15 11:00:29;;;;;;;;;;;20.10;77.50;;;;;;5014624;28;19921;-79
2021/04/15 11:03:10;;;;;;;;;;;20.10;76.90;;;;;;5014889;28;20049;-78
2021/04/15 11:05:45;;;;;;;;;;;20.10;78.10;;;;;;5024233;28;19918;-77
2021/04/15 11:08:26;;;;;;;;;;;20.10;78.10;;;;;;5017684;28;19996;-75
2021/04/15 11:11:12;;;;;;;;;;;20.10;78.20;;;;;;5035478;28;19913;-76
2021/04/15 11:13:39;;;;;;;;;;;20.10;77.60;;;;;;5012623;28;20307;-76
2021/04/15 11:16:18;;;;;;;;;;;20.00;75.30;;;;;;5011693;28;19917;-77
2021/04/15 11:18:44;;;;;;;;;;;20.00;75.40;;;;;;5012735;28;20379;-76
2021/04/15 11:21:20;;;;;;;;;;;20.00;76.00;;;;;;5013523;28;19928;-76
2021/04/15 11:23:49;;;;;;;;;;;20.00;77.00;;;;;;5009221;28;19952;-77
2021/04/15 11:26:22;;;;;;;;;;;20.00;75.20;;;;;;4995248;28;19913;-79
2021/04/15 11:28:50;;;;;;;;;;;20.00;76.30;;;;;;5006372;28;19917;-79
2021/04/15 11:31:19;;;;;;;;;;;19.90;75.20;;;;;;5012049;28;19918;-78
2021/04/15 11:33:50;;;;;;;;;;;20.00;74.50;;;;;;5014089;28;19921;-79
2021/04/15 11:36:23;;;;;;;;;;;20.00;76.80;;;;;;5011104;28;19909;-79
2021/04/15 11:38:51;;;;;;;;;;;20.00;75.10;;;;;;5008492;28;20012;-80
2021/04/15 11:41:23;;;;;;;;;;;20.00;73.50;;;;;;5012192;28;20391;-80
2021/04/15 11:44:06;;;;;;;;;;;20.00;73.20;;;;;;5011417;28;19936;-80
2021/04/15 11:46:33;;;;;;;;;;;20.00;73.10;;;;;;5012591;28;19922;-78
2021/04/15 11:49:13;;;;;;;;;;;19.90;73.70;;;;;;4980401;28;19921;-79
2021/04/15 11:51:56;;;;;;;;;;;19.90;75.00;;;;;;5011399;28;19917;-77
2021/04/15 11:54:33;;;;;;;;;;;19.80;74.40;;;;;;4996149;28;20020;-79
2021/04/15 11:57:15;;;;;;;;;;;19.90;73.50;;;;;;5013227;28;19956;-78
2021/04/15 11:59:42;;;;;;;;;;;19.80;73.40;;;;;;5012805;28;19921;-83
2021/04/15 12:02:29;;;;;;;;;;;19.80;73.50;;;;;;5011267;28;19984;-71
2021/04/15 12:05:14;;;;;;;;;;;19.80;74.70;;;;;;5011454;28;19924;-71
2021/04/15 12:07:43;;;;;;;;;;;19.80;74.20;;;;;;5010523;28;20322;-70
2021/04/15 12:10:10;;;;;;;;;;;19.80;74.20;;;;;;5010517;28;20000;-69
2021/04/15 12:12:39;;;;;;;;;;;19.70;74.20;;;;;;5002789;28;20286;-71
2021/04/15 12:15:06;;;;;;;;;;;19.70;75.50;;;;;;5009733;28;20012;-71
2021/04/15 12:17:48;;;;;;;;;;;19.70;76.20;;;;;;5009626;28;19913;-71
2021/04/15 12:20:27;;;;;;;;;;;19.60;75.70;;;;;;5010371;28;19918;-70
2021/04/15 12:23:02;;;;;;;;;;;19.60;75.70;;;;;;5010161;28;19921;-71
2021/04/15 12:25:30;;;;;;;;;;;19.50;75.10;;;;;;5009834;28;19984;-70
2021/04/15 12:28:12;;;;;;;;;;;19.50;74.70;;;;;;4991178;28;20150;-71
2021/04/15 12:30:39;;;;;;;;;;;19.50;76.30;;;;;;5008997;28;19925;-70
2021/04/15 12:33:15;;;;;;;;;;;19.50;75.50;;;;;;5009336;28;19947;-71
2021/04/15 12:35:53;;;;;;;;;;;19.50;75.60;;;;;;5001397;28;20001;-71
2021/04/15 12:38:24;;;;;;;;;;;19.50;76.80;;;;;;4993983;28;19910;-71
2021/04/15 12:40:55;;;;;;;;;;;19.50;75.30;;;;;;5011904;28;20007;-71
2021/04/15 12:43:27;;;;;;;;;;;19.50;75.70;;;;;;4998755;28;20031;-71
2021/04/15 12:46:13;;;;;;;;;;;19.50;74.50;;;;;;4999832;28;20032;-71
2021/04/15 12:48:39;;;;;;;;;;;19.50;74.80;;;;;;5009297;28;20073;-72
2021/04/15 12:51:07;;;;;;;;;;;19.40;75.20;;;;;;5005703;28;19948;-71
2021/04/15 12:53:36;;;;;;;;;;;19.40;75.70;;;;;;5013798;28;19914;-71
2021/04/15 12:56:07;;;;;;;;;;;19.40;74.80;;;;;;5012026;28;19928;-72
2021/04/15 12:58:34;;;;;;;;;;;19.40;75.10;;;;;;5013478;28;19913;-71
2021/04/15 13:01:01;;;;;;;;;;;19.40;74.10;;;;;;5008712;28;19918;-70
2021/04/15 13:03:34;;;;;;;;;;;19.40;73.80;;;;;;5013153;28;19964;-72
2021/04/15 13:06:05;;;;;;;;;;;19.40;73.20;;;;;;5013997;28;20291;-71
2021/04/15 13:08:35;;;;;;;;;;;19.40;72.90;;;;;;5013843;28;20342;-70
2021/04/15 13:11:22;;;;;;;;;;;19.40;72.70;;;;;;5013588;28;19910;-71
2021/04/15 13:14:02;;;;;;;;;;;19.40;73.20;;;;;;5002846;28;19917;-71
2021/04/15 13:16:34;;;;;;;;;;;19.40;72.70;;;;;;5004845;28;19913;-72
2021/04/15 13:19:24;;;;;;;;;;;19.40;72.60;;;;;;5010025;28;19940;-72
2021/04/15 13:22:01;;;;;;;;;;;19.40;72.60;;;;;;5012941;28;19961;-71
2021/04/15 13:24:40;;;;;;;;;;;19.30;72.50;;;;;;5010647;28;19917;-71
2021/04/15 13:27:25;;;;;;;;;;;19.30;73.00;;;;;;5003520;28;19918;-72
2021/04/15 13:30:10;;;;;;;;;;;19.40;73.60;;;;;;5007255;28;19973;-72
2021/04/15 13:32:55;;;;;;;;;;;19.30;73.90;;;;;;5009957;28;19940;-71
2021/04/15 13:35:23;;;;;;;;;;;19.30;74.00;;;;;;4993935;28;19960;-71
2021/04/15 13:37:50;;;;;;;;;;;19.30;73.00;;;;;;5011366;28;19921;-70
2021/04/15 13:40:20;;;;;;;;;;;19.30;73.70;;;;;;4989588;28;19914;-70
2021/04/15 13:42:50;;;;;;;;;;;19.30;73.10;;;;;;5007762;28;19925;-71
2021/04/15 13:45:37;;;;;;;;;;;19.30;72.90;;;;;;4993925;28;19910;-71
2021/04/15 13:48:04;;;;;;;;;;;19.30;73.60;;;;;;5004159;28;20004;-71
2021/04/15 13:51:05;;;;;;;;;;;19.20;73.10;;;;;;5012039;28;19913;-72
2021/04/15 13:53:46;;;;;;;;;;;19.20;73.50;;;;;;4933026;29;19946;-71
2021/04/15 13:56:26;;;;;;;;;;;19.10;73.60;;;;;;5004373;28;19913;-72
2021/04/15 13:58:52;;;;;;;;;;;19.10;74.80;;;;;;5011918;28;19918;-72
2021/04/15 14:01:34;;;;;;;;;;;19.00;73.50;;;;;;5013029;28;19921;-71
2021/04/15 14:04:01;;;;;;;;;;;19.00;73.90;;;;;;5012646;28;19921;-71
2021/04/15 14:06:29;;;;;;;;;;;19.00;73.60;;;;;;5010261;28;19932;-71
2021/04/15 14:09:16;;;;;;;;;;;19.00;73.90;;;;;;5012491;28;20431;-71
2021/04/15 14:11:48;;;;;;;;;;;19.00;73.60;;;;;;5012306;28;19917;-71
2021/04/15 14:14:23;;;;;;;;;;;19.00;73.30;;;;;;5012274;28;19914;-71
2021/04/15 14:16:51;;;;;;;;;;;18.90;73.00;;;;;;5011521;28;19996;-71
2021/04/15 14:19:26;;;;;;;;;;;18.90;73.50;;;;;;4995688;28;19910;-70
2021/04/15 14:21:56;;;;;;;;;;;18.90;73.50;;;;;;5004247;28;19952;-73
2021/04/15 14:24:23;;;;;;;;;;;18.90;73.60;;;;;;5011906;28;20356;-71
2021/04/15 14:26:53;;;;;;;;;;;18.90;73.60;;;;;;4995366;28;20442;-71
2021/04/15 14:29:20;;;;;;;;;;;18.80;73.80;;;;;;5010148;28;20303;-70
2021/04/15 14:31:52;;;;;;;;;;;18.80;72.40;;;;;;5012099;28;20370;-72
2021/04/15 14:34:28;;;;;;;;;;;18.80;72.50;;;;;;5011472;28;20004;-71
2021/04/15 14:36:59;;;;;;;;;;;18.80;72.30;;;;;;5011770;28;19925;-69
2021/04/15 14:39:37;;;;;;;;;;;18.80;72.20;;;;;;5012469;28;20454;-70
2021/04/15 14:42:05;;;;;;;;;;;18.70;72.60;;;;;;5011983;28;19924;-71
2021/04/15 14:44:32;;;;;;;;;;;18.70;72.20;;;;;;5012358;28;19920;-71
2021/04/15 14:47:00;;;;;;;;;;;18.70;71.80;;;;;;5011424;28;20334;-72
2021/04/15 14:49:35;;;;;;;;;;;18.70;71.90;;;;;;5012060;28;19914;-71
2021/04/15 14:52:07;;;;;;;;;;;18.70;70.70;;;;;;5000678;28;19966;-71
2021/04/15 14:54:36;;;;;;;;;;;18.70;72.00;;;;;;5011505;28;19913;-71
2021/04/15 14:57:03;;;;;;;;;;;18.70;70.90;;;;;;5010441;28;20359;-72
2021/04/15 14:59:36;;;;;;;;;;;18.70;70.90;;;;;;5018739;28;19924;-70
2021/04/15 15:02:04;;;;;;;;;;;18.70;70.90;;;;;;5021261;28;20275;-71
2021/04/15 15:04:32;;;;;;;;;;;18.70;71.50;;;;;;5012792;28;19913;-71
2021/04/15 15:06:59;;;;;;;;;;;18.60;71.20;;;;;;5011240;28;19959;-71
2021/04/15 15:09:27;;;;;;;;;;;18.60;70.80;;;;;;5011719;28;19917;-71
2021/04/15 15:11:55;;;;;;;;;;;18.50;70.80;;;;;;5011378;28;19921;-71